createdAt,value
2018-03-21T00:00:38.467Z,0.00
2018-03-21T00:01:38.380Z,0.00
2018-03-21T00:02:38.372Z,0.00
2018-03-21T00:03:38.278Z,0.00
2018-03-21T00:04:38.525Z,0.00
2018-03-21T00:05:38.183Z,0.00
2018-03-21T00:06:38.147Z,0.00
2018-03-21T00:07:38.092Z,0.00
2018-03-21T00:08:38.031Z,0.00
2018-03-21T00:09:37.994Z,0.00
2018-03-21T00:10:37.939Z,0.00
2018-03-21T00:11:38.188Z,0.00
2018-03-21T00:12:37.871Z,0.00
2018-03-21T00:13:37.787Z,0.00
2018-03-21T00:14:37.790Z,0.00
2018-03-21T00:15:37.709Z,0.00
2018-03-21T00:16:37.648Z,0.00
2018-03-21T00:17:37.595Z,0.00
2018-03-21T00:18:37.847Z,0.00
2018-03-21T00:19:37.498Z,0.00
2018-03-21T00:20:37.448Z,0.00
2018-03-21T00:21:37.401Z,0.00
2018-03-21T00:22:37.351Z,0.00
2018-03-21T00:23:37.302Z,0.00
2018-03-21T00:24:37.254Z,0.00
2018-03-21T00:25:37.510Z,0.00
2018-03-21T00:26:37.207Z,0.00
2018-03-21T00:27:37.107Z,0.00
2018-03-21T00:28:37.059Z,0.00
2018-03-21T00:29:37.012Z,0.00
2018-03-21T00:30:36.962Z,0.00
2018-03-21T00:31:36.914Z,0.00
2018-03-21T00:32:37.164Z,0.00
2018-03-21T00:33:36.825Z,0.00
2018-03-21T00:34:36.769Z,0.00
2018-03-21T00:35:36.719Z,0.00
2018-03-21T00:36:36.669Z,0.00
2018-03-21T00:37:36.620Z,0.00
2018-03-21T00:38:36.623Z,0.00
2018-03-21T00:39:36.825Z,0.00
2018-03-21T00:40:36.473Z,0.00
2018-03-21T00:41:36.426Z,0.00
2018-03-21T00:42:36.378Z,0.00
2018-03-21T00:43:36.331Z,0.00
2018-03-21T00:44:36.283Z,0.00
2018-03-21T00:45:36.233Z,0.00
2018-03-21T00:46:36.485Z,0.00
2018-03-21T00:47:36.134Z,0.00
2018-03-21T00:48:36.085Z,0.00
2018-03-21T00:49:36.040Z,0.00
2018-03-21T00:50:36.000Z,0.00
2018-03-21T00:51:35.943Z,0.00
2018-03-21T00:52:36.197Z,0.00
2018-03-21T00:53:35.839Z,0.00
2018-03-21T00:54:35.798Z,0.00
2018-03-21T00:55:35.744Z,0.00
2018-03-21T00:56:35.696Z,0.00
2018-03-21T00:57:35.649Z,0.00
2018-03-21T00:58:35.897Z,0.00
2018-03-21T00:59:35.552Z,0.00
2018-03-21T01:00:35.500Z,0.00
2018-03-21T01:01:35.460Z,0.00
2018-03-21T01:02:35.453Z,0.00
2018-03-21T01:03:35.353Z,0.00
2018-03-21T01:04:35.606Z,0.00
2018-03-21T01:05:35.263Z,0.00
2018-03-21T01:06:35.207Z,0.00
2018-03-21T01:07:35.158Z,0.00
2018-03-21T01:08:35.115Z,0.00
2018-03-21T01:09:35.064Z,0.00
2018-03-21T01:10:35.311Z,0.00
2018-03-21T01:11:34.964Z,0.00
2018-03-21T01:12:34.914Z,0.00
2018-03-21T01:13:34.866Z,0.00
2018-03-21T01:14:34.821Z,0.00
2018-03-21T01:15:34.768Z,0.00
2018-03-21T01:16:35.020Z,0.00
2018-03-21T01:17:34.670Z,0.00
2018-03-21T01:18:34.620Z,0.00
2018-03-21T01:19:34.573Z,0.00
2018-03-21T01:20:34.525Z,0.00
2018-03-21T01:21:34.475Z,0.00
2018-03-21T01:22:34.426Z,0.00
2018-03-21T01:23:34.680Z,0.00
2018-03-21T01:24:34.327Z,0.00
2018-03-21T01:25:34.278Z,0.00
2018-03-21T01:26:34.235Z,0.00
2018-03-21T01:27:34.182Z,0.00
2018-03-21T01:28:34.140Z,0.00
2018-03-21T01:29:34.083Z,0.00
2018-03-21T01:30:34.333Z,0.00
2018-03-21T01:31:33.984Z,0.00
2018-03-21T01:32:33.937Z,0.00
2018-03-21T01:33:33.888Z,0.00
2018-03-21T01:34:33.839Z,0.00
2018-03-21T01:35:33.791Z,0.00
2018-03-21T01:36:33.741Z,0.00
2018-03-21T01:37:33.994Z,0.00
2018-03-21T01:38:33.644Z,0.00
2018-03-21T01:39:33.599Z,0.00
2018-03-21T01:40:33.545Z,0.00
2018-03-21T01:41:33.496Z,0.00
2018-03-21T01:42:33.448Z,0.00
2018-03-21T01:43:33.397Z,0.00
2018-03-21T01:44:33.653Z,0.00
2018-03-21T01:45:33.298Z,0.00
2018-03-21T01:46:33.248Z,0.00
2018-03-21T01:47:33.200Z,0.00
2018-03-21T01:48:33.152Z,0.00
2018-03-21T01:49:33.113Z,0.00
2018-03-21T01:50:33.097Z,0.00
2018-03-21T01:51:33.309Z,0.00
2018-03-21T01:52:32.954Z,0.00
2018-03-21T01:53:32.905Z,0.00
2018-03-21T01:54:32.855Z,0.00
2018-03-21T01:55:32.810Z,0.00
2018-03-21T01:56:32.758Z,0.00
2018-03-21T01:57:33.008Z,0.00
2018-03-21T01:58:32.667Z,0.00
2018-03-21T01:59:32.612Z,0.00
2018-03-21T02:00:32.560Z,0.00
2018-03-21T02:01:32.512Z,0.00
2018-03-21T02:02:32.471Z,0.00
2018-03-21T02:03:32.715Z,0.00
2018-03-21T02:04:32.363Z,0.00
2018-03-21T02:05:32.322Z,0.00
2018-03-21T02:06:32.267Z,0.00
2018-03-21T02:07:32.223Z,0.00
2018-03-21T02:08:32.165Z,0.00
2018-03-21T02:09:32.418Z,0.00
2018-03-21T02:10:32.067Z,0.00
2018-03-21T02:11:32.020Z,0.00
2018-03-21T02:12:31.968Z,0.00
2018-03-21T02:13:31.919Z,0.00
2018-03-21T02:14:31.876Z,0.00
2018-03-21T02:15:32.122Z,0.00
2018-03-21T02:16:31.771Z,0.00
2018-03-21T02:17:31.728Z,0.00
2018-03-21T02:18:31.673Z,0.00
2018-03-21T02:19:31.623Z,0.00
2018-03-21T02:20:31.573Z,0.00
2018-03-21T02:21:31.826Z,0.00
2018-03-21T02:22:31.483Z,0.00
2018-03-21T02:23:31.433Z,0.00
2018-03-21T02:24:31.378Z,0.00
2018-03-21T02:25:31.327Z,0.00
2018-03-21T02:26:31.281Z,0.00
2018-03-21T02:27:31.528Z,0.00
2018-03-21T02:28:31.178Z,0.00
2018-03-21T02:29:31.131Z,0.00
2018-03-21T02:30:31.088Z,0.00
2018-03-21T02:31:31.032Z,0.00
2018-03-21T02:32:30.990Z,0.00
2018-03-21T02:33:30.932Z,0.00
2018-03-21T02:34:31.183Z,0.00
2018-03-21T02:35:30.841Z,0.00
2018-03-21T02:36:30.789Z,0.00
2018-03-21T02:37:30.737Z,0.00
2018-03-21T02:38:30.686Z,0.00
2018-03-21T02:39:30.639Z,0.00
2018-03-21T02:40:30.591Z,0.00
2018-03-21T02:41:30.838Z,0.00
2018-03-21T02:42:30.488Z,0.00
2018-03-21T02:43:30.451Z,0.00
2018-03-21T02:44:30.387Z,0.00
2018-03-21T02:45:30.341Z,0.00
2018-03-21T02:46:30.290Z,0.00
2018-03-21T02:47:30.244Z,0.00
2018-03-21T02:48:30.490Z,0.00
2018-03-21T02:49:30.440Z,0.00
2018-03-21T02:50:30.105Z,0.00
2018-03-21T02:51:30.044Z,0.00
2018-03-21T02:52:30.000Z,0.00
2018-03-21T02:53:29.951Z,0.00
2018-03-21T02:54:29.899Z,0.00
2018-03-21T02:55:30.295Z,0.00
2018-03-21T02:56:29.794Z,0.00
2018-03-21T02:57:29.745Z,0.00
2018-03-21T02:58:29.701Z,0.00
2018-03-21T02:59:29.648Z,0.00
2018-03-21T03:00:29.595Z,0.00
2018-03-21T03:01:29.552Z,0.00
2018-03-21T03:02:29.802Z,0.00
2018-03-21T03:03:29.449Z,0.00
2018-03-21T03:04:29.399Z,0.00
2018-03-21T03:05:29.348Z,0.00
2018-03-21T03:06:29.300Z,0.00
2018-03-21T03:07:29.248Z,0.00
2018-03-21T03:08:29.498Z,0.00
2018-03-21T03:09:29.174Z,0.00
2018-03-21T03:10:29.100Z,0.00
2018-03-21T03:11:29.056Z,0.00
2018-03-21T03:12:28.997Z,0.00
2018-03-21T03:13:28.952Z,0.00
2018-03-21T03:14:29.200Z,0.00
2018-03-21T03:15:28.863Z,0.00
2018-03-21T03:16:28.858Z,0.00
2018-03-21T03:17:28.752Z,0.00
2018-03-21T03:18:28.704Z,0.00
2018-03-21T03:19:28.653Z,0.00
2018-03-21T03:20:28.903Z,0.00
2018-03-21T03:21:28.559Z,0.00
2018-03-21T03:22:28.664Z,0.00
2018-03-21T03:23:28.454Z,0.00
2018-03-21T03:24:28.406Z,0.00
2018-03-21T03:25:28.355Z,0.00
2018-03-21T03:26:28.603Z,0.00
2018-03-21T03:27:28.255Z,0.00
2018-03-21T03:28:28.405Z,0.00
2018-03-21T03:29:28.154Z,0.00
2018-03-21T03:30:28.106Z,0.00
2018-03-21T03:31:28.058Z,0.00
2018-03-21T03:32:28.305Z,0.00
2018-03-21T03:33:27.957Z,0.00
2018-03-21T03:34:27.906Z,0.00
2018-03-21T03:35:27.858Z,0.00
2018-03-21T03:36:27.815Z,0.00
2018-03-21T03:37:27.761Z,0.00
2018-03-21T03:38:27.709Z,0.00
2018-03-21T03:39:27.966Z,0.00
2018-03-21T03:40:27.617Z,0.00
2018-03-21T03:41:27.563Z,0.00
2018-03-21T03:42:27.510Z,0.00
2018-03-21T03:43:27.462Z,0.00
2018-03-21T03:44:27.415Z,0.00
2018-03-21T03:45:27.363Z,0.00
2018-03-21T03:46:27.610Z,0.00
2018-03-21T03:47:27.268Z,0.00
2018-03-21T03:48:27.211Z,0.00
2018-03-21T03:49:27.164Z,0.00
2018-03-21T03:50:27.118Z,0.00
2018-03-21T03:51:27.066Z,0.00
2018-03-21T03:52:27.013Z,0.00
2018-03-21T03:53:27.263Z,0.00
2018-03-21T03:54:26.913Z,0.00
2018-03-21T03:55:26.863Z,0.00
2018-03-21T03:56:26.820Z,0.00
2018-03-21T03:57:26.763Z,0.00
2018-03-21T03:58:26.715Z,0.00
2018-03-21T03:59:26.666Z,0.00
2018-03-21T04:00:26.922Z,0.00
2018-03-21T04:01:26.565Z,0.00
2018-03-21T04:02:26.514Z,0.00
2018-03-21T04:03:26.468Z,0.00
2018-03-21T04:04:26.422Z,0.00
2018-03-21T04:05:26.377Z,0.00
2018-03-21T04:06:26.324Z,0.00
2018-03-21T04:07:26.566Z,0.00
2018-03-21T04:08:26.217Z,0.00
2018-03-21T04:09:26.176Z,0.00
2018-03-21T04:10:26.124Z,0.00
2018-03-21T04:11:26.070Z,0.00
2018-03-21T04:12:26.017Z,0.00
2018-03-21T04:13:25.974Z,0.00
2018-03-21T04:14:26.368Z,0.00
2018-03-21T04:15:25.869Z,0.00
2018-03-21T04:16:25.819Z,0.00
2018-03-21T04:17:25.770Z,0.00
2018-03-21T04:18:25.728Z,0.00
2018-03-21T04:19:25.679Z,0.00
2018-03-21T04:20:25.971Z,0.00
2018-03-21T04:21:25.570Z,0.00
2018-03-21T04:22:25.520Z,0.00
2018-03-21T04:23:25.474Z,0.00
2018-03-21T04:24:25.422Z,0.00
2018-03-21T04:25:25.371Z,0.00
2018-03-21T04:26:25.673Z,0.00
2018-03-21T04:27:25.278Z,0.00
2018-03-21T04:28:25.224Z,0.00
2018-03-21T04:29:25.174Z,0.00
2018-03-21T04:30:25.124Z,0.00
2018-03-21T04:31:25.082Z,0.00
2018-03-21T04:32:25.329Z,0.00
2018-03-21T04:33:25.025Z,0.00
2018-03-21T04:34:24.931Z,0.00
2018-03-21T04:35:24.877Z,0.00
2018-03-21T04:36:24.826Z,0.00
2018-03-21T04:37:24.980Z,0.00
2018-03-21T04:38:25.036Z,0.00
2018-03-21T04:39:24.679Z,0.00
2018-03-21T04:40:24.628Z,0.00
2018-03-21T04:41:24.580Z,0.00
2018-03-21T04:42:24.530Z,0.00
2018-03-21T04:43:24.532Z,0.00
2018-03-21T04:44:24.730Z,0.00
2018-03-21T04:45:24.384Z,0.00
2018-03-21T04:46:24.334Z,0.00
2018-03-21T04:47:24.285Z,0.00
2018-03-21T04:48:24.235Z,0.00
2018-03-21T04:49:24.188Z,0.00
2018-03-21T04:50:24.140Z,0.00
2018-03-21T04:51:24.399Z,0.00
2018-03-21T04:52:24.060Z,0.00
2018-03-21T04:53:23.997Z,0.00
2018-03-21T04:54:23.943Z,0.00
2018-03-21T04:55:23.893Z,0.00
2018-03-21T04:56:23.842Z,0.00
2018-03-21T04:57:23.793Z,0.00
2018-03-21T04:58:24.043Z,0.00
2018-03-21T04:59:23.697Z,0.00
2018-03-21T05:00:23.647Z,0.00
2018-03-21T05:01:23.605Z,0.00
2018-03-21T05:02:23.553Z,0.00
2018-03-21T05:03:23.498Z,0.00
2018-03-21T05:04:23.603Z,0.00
2018-03-21T05:05:23.700Z,0.00
2018-03-21T05:06:23.352Z,0.00
2018-03-21T05:07:23.305Z,0.00
2018-03-21T05:08:23.307Z,0.00
2018-03-21T05:09:23.206Z,0.00
2018-03-21T05:10:23.158Z,0.00
2018-03-21T05:11:23.113Z,0.00
2018-03-21T05:12:23.360Z,0.00
2018-03-21T05:13:23.017Z,0.00
2018-03-21T05:14:22.961Z,0.00
2018-03-21T05:15:22.913Z,0.00
2018-03-21T05:16:22.867Z,0.00
2018-03-21T05:17:22.816Z,0.00
2018-03-21T05:18:22.766Z,0.00
2018-03-21T05:19:23.024Z,0.00
2018-03-21T05:20:22.668Z,0.00
2018-03-21T05:21:22.622Z,0.00
2018-03-21T05:22:22.573Z,0.00
2018-03-21T05:23:22.525Z,5.63
2018-03-21T05:24:22.514Z,5.63
2018-03-21T05:25:22.729Z,5.63
2018-03-21T05:26:22.381Z,5.63
2018-03-21T05:27:22.329Z,5.63
2018-03-21T05:28:22.282Z,5.63
2018-03-21T05:29:22.233Z,5.63
2018-03-21T05:30:22.186Z,11.25
2018-03-21T05:31:22.440Z,11.25
2018-03-21T05:32:22.087Z,11.25
2018-03-21T05:33:22.037Z,11.25
2018-03-21T05:34:21.995Z,11.25
2018-03-21T05:35:21.943Z,16.88
2018-03-21T05:36:21.893Z,16.88
2018-03-21T05:37:22.147Z,16.88
2018-03-21T05:38:21.796Z,16.88
2018-03-21T05:39:21.747Z,16.88
2018-03-21T05:40:21.697Z,22.50
2018-03-21T05:41:21.686Z,22.50
2018-03-21T05:42:21.602Z,22.50
2018-03-21T05:43:21.555Z,22.50
2018-03-21T05:44:21.503Z,28.13
2018-03-21T05:45:21.453Z,28.13
2018-03-21T05:46:21.419Z,28.13
2018-03-21T05:47:21.364Z,33.75
2018-03-21T05:48:21.316Z,33.75
2018-03-21T05:49:21.566Z,33.75
2018-03-21T05:50:21.211Z,33.75
2018-03-21T05:51:21.165Z,33.75
2018-03-21T05:52:21.114Z,39.38
2018-03-21T05:53:21.065Z,39.38
2018-03-21T05:54:21.019Z,39.38
2018-03-21T05:55:20.969Z,39.38
2018-03-21T05:56:21.222Z,39.38
2018-03-21T05:57:20.872Z,39.38
2018-03-21T05:58:20.825Z,39.38
2018-03-21T05:59:20.778Z,45.00
2018-03-21T06:00:20.726Z,45.00
2018-03-21T06:01:20.729Z,45.00
2018-03-21T06:02:20.627Z,45.00
2018-03-21T06:03:20.899Z,45.00
2018-03-21T06:04:20.536Z,50.63
2018-03-21T06:05:20.487Z,50.63
2018-03-21T06:06:20.434Z,50.63
2018-03-21T06:07:20.393Z,56.25
2018-03-21T06:08:20.338Z,61.88
2018-03-21T06:09:20.288Z,61.88
2018-03-21T06:10:20.538Z,73.13
2018-03-21T06:11:20.191Z,84.38
2018-03-21T06:12:20.143Z,67.50
2018-03-21T06:13:20.093Z,67.50
2018-03-21T06:14:20.050Z,61.88
2018-03-21T06:15:20.005Z,73.13
2018-03-21T06:16:19.953Z,90.00
2018-03-21T06:17:20.199Z,101.25
2018-03-21T06:18:20.052Z,101.25
2018-03-21T06:19:19.800Z,95.63
2018-03-21T06:20:19.759Z,101.25
2018-03-21T06:21:19.704Z,101.25
2018-03-21T06:22:19.654Z,106.88
2018-03-21T06:23:19.605Z,106.88
2018-03-21T06:24:19.909Z,112.50
2018-03-21T06:25:19.511Z,112.50
2018-03-21T06:26:19.464Z,112.50
2018-03-21T06:27:19.412Z,95.63
2018-03-21T06:28:19.367Z,90.00
2018-03-21T06:29:19.317Z,95.63
2018-03-21T06:30:19.267Z,106.88
2018-03-21T06:31:19.521Z,118.13
2018-03-21T06:32:19.177Z,129.38
2018-03-21T06:33:19.123Z,135.00
2018-03-21T06:34:19.073Z,146.25
2018-03-21T06:35:19.026Z,146.25
2018-03-21T06:36:18.978Z,146.25
2018-03-21T06:37:19.234Z,157.50
2018-03-21T06:38:18.887Z,157.50
2018-03-21T06:39:18.834Z,168.75
2018-03-21T06:40:18.793Z,157.50
2018-03-21T06:41:18.739Z,157.50
2018-03-21T06:42:18.691Z,157.50
2018-03-21T06:43:18.948Z,168.75
2018-03-21T06:44:18.594Z,163.13
2018-03-21T06:45:18.545Z,168.75
2018-03-21T06:46:18.554Z,163.13
2018-03-21T06:47:18.508Z,163.13
2018-03-21T06:48:18.450Z,174.38
2018-03-21T06:49:18.353Z,180.00
2018-03-21T06:50:18.304Z,185.63
2018-03-21T06:51:18.308Z,185.63
2018-03-21T06:52:18.262Z,174.38
2018-03-21T06:53:18.212Z,157.50
2018-03-21T06:54:18.314Z,146.25
2018-03-21T06:55:18.365Z,157.50
2018-03-21T06:56:18.077Z,157.50
2018-03-21T06:57:18.120Z,174.38
2018-03-21T06:58:18.575Z,180.00
2018-03-21T06:59:17.976Z,196.88
2018-03-21T07:00:17.826Z,185.63
2018-03-21T07:01:18.180Z,185.63
2018-03-21T07:02:17.884Z,191.25
2018-03-21T07:03:17.835Z,202.50
2018-03-21T07:04:17.796Z,202.50
2018-03-21T07:05:17.587Z,202.50
2018-03-21T07:06:17.593Z,219.38
2018-03-21T07:07:17.693Z,219.38
2018-03-21T07:08:17.447Z,219.38
2018-03-21T07:09:17.397Z,225.00
2018-03-21T07:10:17.349Z,230.63
2018-03-21T07:11:17.459Z,230.63
2018-03-21T07:12:17.355Z,219.38
2018-03-21T07:13:17.314Z,225.00
2018-03-21T07:14:17.511Z,230.63
2018-03-21T07:15:17.164Z,236.25
2018-03-21T07:16:17.213Z,253.13
2018-03-21T07:17:17.066Z,247.50
2018-03-21T07:18:16.971Z,247.50
2018-03-21T07:19:17.122Z,253.13
2018-03-21T07:20:16.880Z,264.38
2018-03-21T07:21:17.227Z,275.63
2018-03-21T07:22:16.830Z,264.38
2018-03-21T07:23:16.734Z,275.63
2018-03-21T07:24:16.849Z,281.25
2018-03-21T07:25:16.661Z,292.50
2018-03-21T07:26:16.645Z,286.88
2018-03-21T07:27:16.593Z,275.63
2018-03-21T07:28:16.802Z,281.25
2018-03-21T07:29:16.499Z,286.88
2018-03-21T07:30:16.406Z,292.50
2018-03-21T07:31:16.556Z,320.63
2018-03-21T07:32:16.456Z,292.50
2018-03-21T07:33:16.262Z,303.75
2018-03-21T07:34:16.265Z,309.38
2018-03-21T07:35:16.167Z,315.00
2018-03-21T07:36:16.169Z,298.13
2018-03-21T07:37:16.124Z,303.75
2018-03-21T07:38:16.030Z,337.50
2018-03-21T07:39:16.029Z,337.50
2018-03-21T07:40:15.931Z,337.50
2018-03-21T07:41:16.286Z,337.50
2018-03-21T07:42:15.891Z,365.63
2018-03-21T07:43:15.803Z,399.38
2018-03-21T07:44:16.049Z,376.88
2018-03-21T07:45:15.703Z,399.38
2018-03-21T07:46:15.854Z,393.75
2018-03-21T07:47:16.008Z,399.38
2018-03-21T07:48:15.559Z,421.88
2018-03-21T07:49:15.572Z,399.38
2018-03-21T07:50:15.477Z,371.25
2018-03-21T07:51:15.623Z,360.00
2018-03-21T07:52:15.425Z,371.25
2018-03-21T07:53:15.632Z,405.00
2018-03-21T07:54:15.511Z,388.13
2018-03-21T07:55:15.240Z,410.63
2018-03-21T07:56:15.342Z,472.50
2018-03-21T07:57:15.194Z,461.25
2018-03-21T07:58:15.100Z,495.00
2018-03-21T07:59:15.555Z,534.38
2018-03-21T08:00:15.006Z,568.13
2018-03-21T08:01:15.010Z,478.13
2018-03-21T08:02:14.971Z,416.25
2018-03-21T08:03:14.872Z,365.63
2018-03-21T08:04:14.872Z,331.88
2018-03-21T08:05:15.075Z,371.25
2018-03-21T08:06:14.787Z,427.50
2018-03-21T08:07:14.742Z,416.25
2018-03-21T08:08:14.642Z,365.63
2018-03-21T08:09:14.642Z,382.50
2018-03-21T08:10:14.654Z,348.75
2018-03-21T08:11:14.901Z,399.38
2018-03-21T08:12:14.506Z,416.25
2018-03-21T08:13:14.411Z,354.38
2018-03-21T08:14:14.424Z,343.13
2018-03-21T08:15:14.533Z,427.50
2018-03-21T08:16:14.320Z,500.63
2018-03-21T08:17:14.276Z,483.75
2018-03-21T08:18:14.482Z,466.88
2018-03-21T08:19:14.197Z,455.63
2018-03-21T08:20:14.192Z,444.38
2018-03-21T08:21:14.094Z,427.50
2018-03-21T08:22:14.149Z,388.13
2018-03-21T08:23:13.951Z,517.50
2018-03-21T08:24:13.960Z,646.88
2018-03-21T08:25:14.211Z,658.13
2018-03-21T08:26:13.872Z,562.50
2018-03-21T08:27:13.923Z,534.38
2018-03-21T08:28:13.724Z,652.50
2018-03-21T08:29:13.730Z,691.88
2018-03-21T08:30:13.684Z,618.75
2018-03-21T08:31:13.640Z,658.13
2018-03-21T08:32:14.100Z,652.50
2018-03-21T08:33:13.512Z,680.63
2018-03-21T08:34:13.662Z,658.13
2018-03-21T08:35:13.461Z,675.00
2018-03-21T08:36:13.420Z,821.25
2018-03-21T08:37:13.376Z,849.38
2018-03-21T08:38:13.276Z,708.75
2018-03-21T08:39:13.530Z,770.63
2018-03-21T08:40:13.241Z,810.00
2018-03-21T08:41:13.198Z,720.00
2018-03-21T08:42:13.247Z,708.75
2018-03-21T08:43:13.051Z,686.25
2018-03-21T08:44:13.056Z,658.13
2018-03-21T08:45:13.023Z,635.63
2018-03-21T08:46:13.226Z,646.88
2018-03-21T08:47:12.923Z,601.88
2018-03-21T08:48:12.858Z,562.50
2018-03-21T08:49:12.844Z,551.25
2018-03-21T08:50:12.889Z,534.38
2018-03-21T08:51:12.746Z,585.00
2018-03-21T08:52:12.853Z,562.50
2018-03-21T08:53:12.922Z,596.25
2018-03-21T08:54:12.763Z,686.25
2018-03-21T08:55:12.624Z,680.63
2018-03-21T08:56:12.572Z,613.13
2018-03-21T08:57:12.586Z,607.50
2018-03-21T08:58:12.384Z,579.38
2018-03-21T08:59:12.745Z,585.00
2018-03-21T09:00:12.545Z,551.25
2018-03-21T09:01:12.302Z,523.13
2018-03-21T09:02:12.409Z,613.13
2018-03-21T09:03:12.164Z,720.00
2018-03-21T09:04:12.318Z,703.13
2018-03-21T09:05:12.375Z,691.88
2018-03-21T09:06:12.234Z,714.38
2018-03-21T09:07:12.035Z,697.50
2018-03-21T09:08:11.944Z,697.50
2018-03-21T09:09:11.946Z,669.38
2018-03-21T09:10:11.903Z,680.63
2018-03-21T09:11:12.168Z,691.88
2018-03-21T09:12:11.823Z,714.38
2018-03-21T09:13:11.723Z,691.88
2018-03-21T09:14:11.737Z,646.88
2018-03-21T09:15:11.684Z,736.88
2018-03-21T09:16:11.787Z,765.00
2018-03-21T09:17:11.893Z,860.63
2018-03-21T09:18:11.502Z,798.75
2018-03-21T09:19:11.512Z,843.75
2018-03-21T09:20:11.710Z,900.00
2018-03-21T09:21:11.471Z,843.75
2018-03-21T09:22:11.380Z,714.38
2018-03-21T09:23:11.583Z,652.50
2018-03-21T09:24:11.437Z,613.13
2018-03-21T09:25:11.241Z,601.88
2018-03-21T09:26:11.232Z,585.00
2018-03-21T09:27:11.153Z,624.38
2018-03-21T09:28:11.065Z,804.38
2018-03-21T09:29:11.172Z,753.75
2018-03-21T09:30:11.478Z,663.75
2018-03-21T09:31:11.132Z,658.13
2018-03-21T09:32:11.047Z,973.13
2018-03-21T09:33:10.842Z,1254.38
2018-03-21T09:34:10.850Z,1113.75
2018-03-21T09:35:10.823Z,956.25
2018-03-21T09:36:10.861Z,849.38
2018-03-21T09:37:11.067Z,810.00
2018-03-21T09:38:10.624Z,798.75
2018-03-21T09:39:10.783Z,804.38
2018-03-21T09:40:10.588Z,871.88
2018-03-21T09:41:10.800Z,928.13
2018-03-21T09:42:10.600Z,995.63
2018-03-21T09:43:10.416Z,1299.38
2018-03-21T09:44:10.416Z,1541.25
2018-03-21T09:45:10.371Z,1861.88
2018-03-21T09:46:10.329Z,2182.50
2018-03-21T09:47:10.289Z,2143.13
2018-03-21T09:48:10.196Z,1530.00
2018-03-21T09:49:10.202Z,1254.38
2018-03-21T09:50:10.507Z,1215.00
2018-03-21T09:51:10.072Z,1063.13
2018-03-21T09:52:10.074Z,939.38
2018-03-21T09:53:09.982Z,1074.38
2018-03-21T09:54:09.989Z,978.75
2018-03-21T09:55:09.995Z,798.75
2018-03-21T09:56:09.855Z,770.63
2018-03-21T09:57:10.173Z,916.88
2018-03-21T09:58:09.778Z,933.75
2018-03-21T09:59:09.782Z,871.88
2018-03-21T10:00:09.889Z,731.25
2018-03-21T10:01:09.652Z,613.13
2018-03-21T10:02:09.753Z,618.75
2018-03-21T10:03:09.564Z,551.25
2018-03-21T10:04:09.828Z,444.38
2018-03-21T10:05:09.677Z,433.13
2018-03-21T10:06:09.435Z,433.13
2018-03-21T10:07:09.539Z,478.13
2018-03-21T10:08:09.346Z,562.50
2018-03-21T10:09:09.354Z,613.13
2018-03-21T10:10:09.620Z,545.63
2018-03-21T10:11:09.220Z,601.88
2018-03-21T10:12:09.227Z,669.38
2018-03-21T10:13:09.143Z,691.88
2018-03-21T10:14:09.290Z,663.75
2018-03-21T10:15:09.102Z,646.88
2018-03-21T10:16:09.304Z,776.25
2018-03-21T10:17:09.013Z,753.75
2018-03-21T10:18:09.121Z,770.63
2018-03-21T10:19:08.981Z,731.25
2018-03-21T10:20:08.900Z,630.00
2018-03-21T10:21:08.793Z,731.25
2018-03-21T10:22:09.097Z,888.75
2018-03-21T10:23:08.906Z,1063.13
2018-03-21T10:24:08.720Z,984.38
2018-03-21T10:25:08.668Z,753.75
2018-03-21T10:26:08.578Z,725.63
2018-03-21T10:27:08.644Z,866.25
2018-03-21T10:28:08.847Z,804.38
2018-03-21T10:29:08.550Z,736.88
2018-03-21T10:30:08.459Z,759.38
2018-03-21T10:31:08.365Z,984.38
2018-03-21T10:32:08.470Z,1040.63
2018-03-21T10:33:08.327Z,1080.00
2018-03-21T10:34:08.786Z,883.13
2018-03-21T10:35:08.243Z,871.88
2018-03-21T10:36:08.147Z,956.25
2018-03-21T10:37:08.303Z,945.00
2018-03-21T10:38:08.111Z,894.38
2018-03-21T10:39:08.317Z,911.25
2018-03-21T10:40:08.025Z,1091.25
2018-03-21T10:41:07.938Z,1524.38
2018-03-21T10:42:08.191Z,1963.13
2018-03-21T10:43:07.901Z,2947.50
2018-03-21T10:44:07.853Z,1248.75
2018-03-21T10:45:07.984Z,883.13
2018-03-21T10:46:07.794Z,843.75
2018-03-21T10:47:07.981Z,866.25
2018-03-21T10:48:07.788Z,826.88
2018-03-21T10:49:07.645Z,590.63
2018-03-21T10:50:07.856Z,472.50
2018-03-21T10:51:07.567Z,511.88
2018-03-21T10:52:07.519Z,478.13
2018-03-21T10:53:07.482Z,545.63
2018-03-21T10:54:07.496Z,613.13
2018-03-21T10:55:07.392Z,708.75
2018-03-21T10:56:07.338Z,911.25
2018-03-21T10:57:07.460Z,1108.13
2018-03-21T10:58:07.321Z,1119.38
2018-03-21T10:59:07.364Z,1226.25
2018-03-21T11:00:07.480Z,1428.75
2018-03-21T11:01:07.092Z,877.50
2018-03-21T11:02:07.159Z,776.25
2018-03-21T11:03:07.054Z,826.88
2018-03-21T11:04:07.015Z,1035.00
2018-03-21T11:05:07.223Z,1293.75
2018-03-21T11:06:06.883Z,1490.63
2018-03-21T11:07:07.136Z,1479.38
2018-03-21T11:08:06.888Z,1558.13
2018-03-21T11:09:06.856Z,4145.63
2018-03-21T11:10:06.856Z,4185.00
2018-03-21T11:11:06.671Z,4027.50
2018-03-21T11:12:06.680Z,1597.50
2018-03-21T11:13:06.639Z,1366.88
2018-03-21T11:14:06.943Z,1215.00
2018-03-21T11:15:06.555Z,1023.75
2018-03-21T11:16:06.462Z,978.75
2018-03-21T11:17:06.472Z,1220.63
2018-03-21T11:18:06.434Z,4145.63
2018-03-21T11:19:06.444Z,1704.38
2018-03-21T11:20:06.352Z,1136.25
2018-03-21T11:21:06.267Z,967.50
2018-03-21T11:22:06.272Z,883.13
2018-03-21T11:23:06.266Z,961.88
2018-03-21T11:24:06.193Z,1068.75
2018-03-21T11:25:06.155Z,1417.50
2018-03-21T11:26:06.361Z,1524.38
2018-03-21T11:27:06.178Z,1456.88
2018-03-21T11:28:06.038Z,2047.50
2018-03-21T11:29:05.987Z,3470.63
2018-03-21T11:30:06.049Z,2058.75
2018-03-21T11:31:05.858Z,1400.63
2018-03-21T11:32:06.222Z,1524.38
2018-03-21T11:33:05.986Z,3729.38
2018-03-21T11:34:05.913Z,1918.13
2018-03-21T11:35:05.999Z,1591.88
2018-03-21T11:36:05.842Z,1552.50
2018-03-21T11:37:05.818Z,1586.25
2018-03-21T11:38:05.979Z,1569.38
2018-03-21T11:39:05.745Z,1597.50
2018-03-21T11:40:05.501Z,2458.13
2018-03-21T11:41:05.511Z,1603.13
2018-03-21T11:42:05.621Z,1417.50
2018-03-21T11:43:05.387Z,1378.13
2018-03-21T11:44:05.689Z,1721.25
2018-03-21T11:45:05.549Z,1507.50
2018-03-21T11:46:05.259Z,1158.75
2018-03-21T11:47:05.375Z,1293.75
2018-03-21T11:48:05.227Z,1316.25
2018-03-21T11:49:05.147Z,3982.50
2018-03-21T11:50:05.456Z,1518.75
2018-03-21T11:51:05.059Z,1192.50
2018-03-21T11:52:05.070Z,1456.88
2018-03-21T11:53:05.032Z,1620.00
2018-03-21T11:54:04.941Z,4038.75
2018-03-21T11:55:05.102Z,1513.13
2018-03-21T11:56:04.858Z,1884.38
2018-03-21T11:57:05.171Z,2278.13
2018-03-21T11:58:04.983Z,1608.75
2018-03-21T11:59:04.748Z,1788.75
2018-03-21T12:00:04.802Z,1434.38
2018-03-21T12:01:04.674Z,1552.50
2018-03-21T12:02:04.678Z,1451.25
2018-03-21T12:03:04.790Z,1569.38
2018-03-21T12:04:04.864Z,4353.75
2018-03-21T12:05:04.563Z,1906.88
2018-03-21T12:06:04.472Z,3825.00
2018-03-21T12:07:04.483Z,1518.75
2018-03-21T12:08:04.442Z,1614.38
2018-03-21T12:09:04.354Z,1440.00
2018-03-21T12:10:04.367Z,1366.88
2018-03-21T12:11:04.778Z,1321.88
2018-03-21T12:12:04.299Z,1237.50
2018-03-21T12:13:04.253Z,1057.50
2018-03-21T12:14:04.192Z,973.13
2018-03-21T12:15:04.177Z,995.63
2018-03-21T12:16:04.140Z,1074.38
2018-03-21T12:17:04.105Z,1389.38
2018-03-21T12:18:04.352Z,1366.88
2018-03-21T12:19:03.973Z,1951.88
2018-03-21T12:20:04.221Z,1226.25
2018-03-21T12:21:04.135Z,1113.75
2018-03-21T12:22:03.891Z,1068.75
2018-03-21T12:23:03.852Z,1063.13
2018-03-21T12:24:03.761Z,1051.88
2018-03-21T12:25:04.074Z,1006.88
2018-03-21T12:26:03.733Z,973.13
2018-03-21T12:27:03.792Z,961.88
2018-03-21T12:28:03.801Z,1760.63
2018-03-21T12:29:03.561Z,967.50
2018-03-21T12:30:03.572Z,1040.63
2018-03-21T12:31:03.533Z,1276.88
2018-03-21T12:32:03.842Z,3965.63
2018-03-21T12:33:03.551Z,1558.13
2018-03-21T12:34:03.367Z,1389.38
2018-03-21T12:35:03.371Z,1389.38
2018-03-21T12:36:03.491Z,1451.25
2018-03-21T12:37:03.449Z,1726.88
2018-03-21T12:38:03.261Z,3909.38
2018-03-21T12:39:03.164Z,3948.75
2018-03-21T12:40:03.319Z,3330.00
2018-03-21T12:41:03.142Z,1434.38
2018-03-21T12:42:03.091Z,1237.50
2018-03-21T12:43:03.053Z,1108.13
2018-03-21T12:44:02.968Z,916.88
2018-03-21T12:45:03.131Z,714.38
2018-03-21T12:46:03.035Z,720.00
2018-03-21T12:47:02.903Z,877.50